Sabha, Libya
Current Conditions -  °F | °C
As of 6:00 PM on Friday 24 Oct 2014 (Local Time) from DAUZ Reporting Station
Clear Clear  
Wind Chill: 84°   Ceiling: Unl
Heat Index: 84°   Visibility: 6mi
Dew Point: 37°   Wind: 14mph
Humidity: 19%   Direction: 260°W
Pressure: 29.94"   Gusts: NA
Location:  27.03°N, 14.43°E
Report Text: DAUZ 241500Z 26012KT CAVOK 29/03 Q1014
Loading
Personal Weather Stations






























Interactive Weather Map
Tropical Storm Tracking
New forecast layout! Learn more

10-Day Weather Forecast

Advertisements
Track Severe Weather on mobile